Time;durP1;ratioP1;P1;durP2;ratioP2;P2;SDS_P1;SDS_P2;PMS_P1;PMS_P2;Temp;Humidity;BMP_temperature;BMP_pressure;BME280_temperature;BME280_humidity;BME280_pressure;Samples;Min_cycle;Max_cycle;Signal;HPM_P1;HPM_P2
2021/10/02 00:35:13;;;;;;;1.27;0.70;;;;;;;14.25;66.02;100434.06;5072705;28;20212;-77
2021/10/02 00:45:56;;;;;;;1.37;0.90;;;;;;;14.17;69.36;100354.72;5072630;28;20310;-76
2021/10/02 00:48:22;;;;;;;1.50;1.00;;;;;;;14.10;69.88;100337.47;5054093;28;20244;-76
2021/10/02 00:50:57;;;;;;;1.43;0.73;;;;;;;14.05;68.93;100348.13;5052569;28;20209;-76
2021/10/02 00:53:23;;;;;;;0.90;0.90;;;;;;;14.08;70.06;100307.78;5051973;28;20216;-76
2021/10/02 00:55:55;;;;;;;1.20;1.10;;;;;;;14.05;63.76;100412.88;5058297;28;20725;-77
2021/10/02 00:58:21;;;;;;;1.13;0.80;;;;;;;14.09;69.42;100354.09;5060550;28;20243;-76
2021/10/02 01:00:52;;;;;;;2.53;1.20;;;;;;;14.13;70.46;100297.13;5061495;28;20267;-77
2021/10/02 01:03:32;;;;;;;1.63;1.00;;;;;;;14.10;70.26;100272.69;5064149;28;20707;-76
2021/10/02 01:06:18;;;;;;;1.30;0.80;;;;;;;14.13;70.11;100305.00;5060603;28;20278;-76
2021/10/02 01:08:51;;;;;;;1.27;0.90;;;;;;;14.17;69.88;100324.97;5061578;28;20197;-77
2021/10/02 01:11:27;;;;;;;3.33;0.83;;;;;;;14.15;69.42;100356.50;5062046;28;20257;-77
2021/10/02 01:14:01;;;;;;;2.53;0.80;;;;;;;14.13;66.21;100436.25;5062597;28;20200;-76
2021/10/02 01:16:33;;;;;;;9.43;1.00;;;;;;;14.13;68.11;100404.75;5061581;28;20224;-76
2021/10/02 01:19:23;;;;;;;0.83;0.80;;;;;;;14.13;67.37;100402.97;5060805;28;20201;-76
2021/10/02 01:21:58;;;;;;;1.30;0.80;;;;;;;14.15;68.21;100385.38;5062198;28;20239;-76
2021/10/02 01:24:36;;;;;;;2.00;1.07;;;;;;;14.13;67.85;100378.50;5051509;28;20686;-77
2021/10/02 01:27:39;;;;;;;1.03;0.70;;;;;;;14.03;70.04;100304.47;5051000;28;20224;-77
2021/10/02 01:30:13;;;;;;;0.97;0.73;;;;;;;13.99;69.58;100292.34;5051050;28;20209;-76
2021/10/02 01:32:51;;;;;;;2.03;1.07;;;;;;;14.02;69.60;100326.38;5063080;28;20204;-77
2021/10/02 01:35:26;;;;;;;1.20;0.70;;;;;;;14.03;69.82;100302.72;5060752;28;20208;-77
2021/10/02 01:47:08;;;;;;;0.80;0.80;;;;;;;13.98;71.51;100270.50;5062631;28;20250;-77
2021/10/02 01:49:09;;;;;;;1.67;0.90;;;;;;;13.85;72.37;100233.34;5061916;28;20216;-77
2021/10/02 01:51:36;;;;;;;1.90;0.93;;;;;;;13.90;71.52;100230.56;5059857;28;20591;-76
2021/10/02 01:54:03;;;;;;;1.57;0.80;;;;;;;13.87;73.72;100197.44;5060752;28;20667;-76
2021/10/02 01:56:31;;;;;;;1.67;0.87;;;;;;;13.80;75.04;100132.13;5061554;28;20224;-77
2021/10/02 01:58:59;;;;;;;1.40;0.90;;;;;;;13.81;75.16;100118.09;5059630;28;20204;-76
2021/10/02 02:01:27;;;;;;;1.43;1.00;;;;;;;13.84;75.96;100120.59;5058526;28;20197;-76
2021/10/02 02:03:56;;;;;;;1.60;1.00;;;;;;;13.85;76.28;100109.19;5061777;28;20228;-75
2021/10/02 02:06:24;;;;;;;2.97;1.13;;;;;;;13.80;76.94;100080.50;5061894;28;20226;-76
2021/10/02 02:08:52;;;;;;;1.70;1.00;;;;;;;13.82;77.21;100072.59;5060333;28;20194;-76
2021/10/02 02:11:19;;;;;;;1.00;0.87;;;;;;;13.76;78.34;100060.56;5060020;28;20230;-75
2021/10/02 02:13:48;;;;;;;2.50;1.07;;;;;;;13.70;78.29;100055.53;5060816;28;20246;-76
2021/10/02 02:16:16;;;;;;;3.70;1.30;;;;;;;13.70;77.61;100064.25;5061711;28;20215;-76
2021/10/02 02:18:43;;;;;;;1.67;0.80;;;;;;;13.66;75.82;100127.38;5064182;28;20204;-75
2021/10/02 02:21:12;;;;;;;2.10;1.40;;;;;;;13.68;75.81;100147.41;5051443;28;20208;-77
2021/10/02 02:23:39;;;;;;;1.13;1.00;;;;;;;13.62;76.34;100117.94;5061035;28;20219;-76
2021/10/02 02:26:09;;;;;;;1.43;1.17;;;;;;;13.56;77.96;100082.28;5071271;28;20228;-76
2021/10/02 02:28:37;;;;;;;1.83;1.10;;;;;;;13.55;77.57;100100.69;5070721;28;20264;-76
2021/10/02 02:31:05;;;;;;;2.77;1.10;;;;;;;13.55;79.01;100077.94;5071108;28;20266;-76
2021/10/02 02:33:34;;;;;;;1.50;1.13;;;;;;;13.47;79.04;100066.88;5071270;28;20209;-76
2021/10/02 02:36:01;;;;;;;2.20;1.10;;;;;;;13.47;77.90;100099.19;5069450;28;20810;-75
2021/10/02 02:38:29;;;;;;;1.80;0.90;;;;;;;13.44;78.75;100085.38;5064831;28;20204;-77
2021/10/02 02:40:56;;;;;;;1.33;1.10;;;;;;;13.41;79.93;100057.47;5071038;28;20257;-75
2021/10/02 02:43:22;;;;;;;2.00;1.20;;;;;;;13.38;80.02;100035.75;5070928;28;20226;-76
2021/10/02 02:45:55;;;;;;;3.00;1.57;;;;;;;13.35;80.34;100047.22;5071194;28;20308;-76
2021/10/02 02:48:28;;;;;;;2.03;1.20;;;;;;;13.33;81.39;100007.09;5071182;28;20261;-77
2021/10/02 02:51:00;;;;;;;1.83;1.20;;;;;;;13.31;81.98;99996.66;5074602;28;20567;-77
2021/10/02 02:53:33;;;;;;;1.40;1.30;;;;;;;13.27;82.21;99984.56;5073089;28;20203;-76
2021/10/02 02:56:07;;;;;;;2.20;1.03;;;;;;;13.28;82.31;100001.16;5054736;28;20636;-76
2021/10/02 02:58:36;;;;;;;2.10;1.10;;;;;;;13.23;82.78;99988.19;5054741;28;20201;-76
2021/10/02 03:01:05;;;;;;;1.40;1.03;;;;;;;13.21;82.40;99997.88;5054742;28;20212;-77
2021/10/02 03:03:34;;;;;;;2.40;1.63;;;;;;;13.20;82.69;100003.19;5054159;28;20589;-77
2021/10/02 03:06:07;;;;;;;1.67;1.40;;;;;;;13.21;83.26;100012.75;5056042;28;20232;-76
2021/10/02 03:08:37;;;;;;;2.77;1.50;;;;;;;13.20;83.08;99997.94;5074303;28;20209;-77
2021/10/02 03:11:05;;;;;;;1.93;1.30;;;;;;;13.09;84.45;99982.63;5067902;28;20192;-76
2021/10/02 03:13:35;;;;;;;2.10;1.30;;;;;;;13.15;83.91;100002.50;5054538;28;20237;-76
2021/10/02 03:16:03;;;;;;;2.70;1.40;;;;;;;13.08;84.63;99989.63;5054428;28;20247;-77
2021/10/02 03:18:33;;;;;;;1.10;1.00;;;;;;;13.08;84.57;100001.84;5053648;28;20223;-74
2021/10/02 03:21:02;;;;;;;1.27;1.10;;;;;;;13.08;83.92;100028.06;5054297;28;20214;-77
2021/10/02 03:23:29;;;;;;;1.80;1.40;;;;;;;13.03;84.24;100025.63;5054322;28;20289;-76
2021/10/02 03:25:56;;;;;;;2.20;1.50;;;;;;;13.05;84.62;100017.72;5054221;28;20585;-76
2021/10/02 03:28:23;;;;;;;1.83;1.60;;;;;;;13.04;85.21;100018.59;5056394;28;20194;-76
2021/10/02 03:30:51;;;;;;;3.60;1.50;;;;;;;13.02;85.22;100018.69;5074002;28;20220;-76
2021/10/02 03:33:20;;;;;;;1.47;1.23;;;;;;;13.02;85.53;100015.19;5073858;28;20200;-77
2021/10/02 03:35:48;;;;;;;1.80;1.17;;;;;;;13.04;84.79;100029.09;5066650;28;20663;-76
2021/10/02 03:38:16;;;;;;;1.67;1.20;;;;;;;13.02;85.55;100018.69;5073658;28;20242;-76
2021/10/02 03:40:42;;;;;;;2.20;1.50;;;;;;;13.03;85.29;100022.16;5074018;28;20205;-76
2021/10/02 03:43:08;;;;;;;1.63;1.20;;;;;;;13.02;84.85;100054.47;5073667;28;20286;-76
2021/10/02 03:45:36;;;;;;;1.73;1.30;;;;;;;13.02;85.08;100063.22;5072872;28;20968;-76
2021/10/02 03:48:04;;;;;;;3.07;1.40;;;;;;;12.98;85.66;100051.13;5053557;28;20571;-76
2021/10/02 03:50:30;;;;;;;1.47;1.13;;;;;;;12.99;85.77;100055.47;5053690;28;20212;-77
2021/10/02 03:52:57;;;;;;;1.73;1.10;;;;;;;12.99;85.54;100067.72;5053828;28;20230;-77
2021/10/02 03:55:27;;;;;;;1.17;1.07;;;;;;;12.98;86.43;100050.25;5052898;28;20617;-76
2021/10/02 03:57:54;;;;;;;1.50;1.30;;;;;;;12.99;86.52;100044.97;5053739;28;20258;-76
2021/10/02 04:00:22;;;;;;;2.70;1.27;;;;;;;13.01;86.95;100034.44;5053435;28;20236;-77
2021/10/02 04:02:48;;;;;;;1.30;1.20;;;;;;;13.02;86.64;100046.63;5053134;28;20231;-76
2021/10/02 04:05:14;;;;;;;1.60;1.50;;;;;;;13.04;86.77;100048.31;5072855;28;20200;-76
2021/10/02 04:07:41;;;;;;;1.77;1.10;;;;;;;12.96;87.05;100034.59;5072930;28;20227;-75
2021/10/02 04:10:08;;;;;;;2.00;1.33;;;;;;;12.98;87.43;100035.38;5072879;28;20678;-75
2021/10/02 04:12:36;;;;;;;1.90;1.43;;;;;;;12.96;87.82;100038.97;5073623;28;20210;-76
2021/10/02 04:15:03;;;;;;;2.27;1.23;;;;;;;12.99;87.29;100050.22;5073425;28;20276;-77
2021/10/02 04:17:29;;;;;;;2.83;1.70;;;;;;;13.02;86.84;100060.59;5072745;28;20223;-76
2021/10/02 04:19:56;;;;;;;2.70;1.73;;;;;;;13.01;86.66;100069.34;5073023;28;20212;-76
2021/10/02 04:22:22;;;;;;;1.50;1.27;;;;;;;12.98;86.46;100087.78;5071379;28;20246;-76
2021/10/02 04:24:48;;;;;;;1.50;1.20;;;;;;;13.01;86.54;100098.19;5072869;28;21034;-76
2021/10/02 04:27:15;;;;;;;2.87;1.93;;;;;;;13.02;85.87;100110.38;5073063;28;20396;-77
2021/10/02 04:29:43;;;;;;;1.60;1.50;;;;;;;13.04;85.91;100116.44;5072891;28;20619;-77
2021/10/02 04:32:09;;;;;;;1.67;1.47;;;;;;;13.01;86.00;100113.06;5072394;28;20682;-76
2021/10/02 04:34:36;;;;;;;1.47;1.37;;;;;;;13.04;86.07;100113.81;5073935;28;20731;-76
2021/10/02 04:37:03;;;;;;;1.60;1.50;;;;;;;13.04;86.29;100110.31;5066964;28;20636;-76
2021/10/02 04:39:29;;;;;;;1.40;1.30;;;;;;;13.05;85.99;100120.75;5070929;28;20233;-76
2021/10/02 04:41:56;;;;;;;2.57;1.40;;;;;;;13.02;86.40;100102.53;5073152;28;20261;-76
2021/10/02 04:44:22;;;;;;;1.80;1.70;;;;;;;13.01;87.25;100092.94;5072628;28;20756;-76
2021/10/02 04:46:50;;;;;;;1.57;1.20;;;;;;;13.02;86.95;100091.16;5072399;28;20273;-76
2021/10/02 04:49:17;;;;;;;2.40;1.43;;;;;;;12.99;87.31;100072.94;5072342;28;20211;-77
2021/10/02 04:51:43;;;;;;;2.47;1.70;;;;;;;12.95;88.02;100069.56;5072395;28;20620;-76
2021/10/02 04:54:10;;;;;;;2.17;1.47;;;;;;;12.94;88.03;100072.25;5071942;28;20737;-76
2021/10/02 04:56:37;;;;;;;1.40;1.30;;;;;;;12.93;88.12;100062.69;5070849;28;20223;-76
2021/10/02 04:59:04;;;;;;;1.80;1.70;;;;;;;12.96;88.33;100062.56;5072013;28;20265;-76
2021/10/02 05:01:30;;;;;;;3.50;1.50;;;;;;;12.90;88.56;100059.25;5072248;28;20211;-77
2021/10/02 05:03:58;;;;;;;2.20;1.60;;;;;;;12.88;88.70;100054.97;5071969;28;20225;-77
2021/10/02 05:06:25;;;;;;;1.30;1.20;;;;;;;12.90;88.50;100051.41;5070915;28;20235;-76
2021/10/02 05:08:51;;;;;;;2.37;1.47;;;;;;;12.90;88.23;100045.28;5069337;28;20202;-75
2021/10/02 05:11:18;;;;;;;1.40;1.30;;;;;;;12.89;88.52;100056.69;5063403;28;20198;-76
2021/10/02 05:13:44;;;;;;;2.57;2.13;;;;;;;12.87;88.08;100058.50;5052292;28;20213;-75
2021/10/02 05:16:11;;;;;;;3.00;1.60;;;;;;;12.88;88.13;100065.44;5051958;28;20235;-76
2021/10/02 05:18:37;;;;;;;1.70;1.37;;;;;;;12.90;88.02;100068.88;5051669;28;20261;-76
2021/10/02 05:21:05;;;;;;;1.20;1.10;;;;;;;12.92;87.88;100088.00;5072126;28;20206;-77
2021/10/02 05:23:31;;;;;;;1.67;1.40;;;;;;;12.93;87.75;100089.72;5072001;28;20708;-76
2021/10/02 05:25:58;;;;;;;2.50;1.40;;;;;;;12.90;87.39;100089.81;5070108;28;20305;-76
2021/10/02 05:28:25;;;;;;;2.07;1.77;;;;;;;12.90;87.38;100103.81;5071657;28;20269;-75
2021/10/02 05:30:51;;;;;;;1.80;1.60;;;;;;;12.89;88.31;100096.84;5071756;28;20203;-76
2021/10/02 05:33:18;;;;;;;1.20;1.10;;;;;;;12.88;88.16;100070.69;5071629;28;20702;-75
2021/10/02 05:35:45;;;;;;;1.40;1.30;;;;;;;12.89;87.68;100072.41;5071869;28;20235;-76
2021/10/02 05:38:13;;;;;;;1.57;1.23;;;;;;;12.92;88.09;100067.03;5065531;28;20266;-76
2021/10/02 05:40:40;;;;;;;1.73;1.40;;;;;;;12.85;87.94;100065.56;5071733;28;20585;-76
2021/10/02 05:43:06;;;;;;;1.50;1.40;;;;;;;12.85;88.19;100079.50;5071755;28;20233;-76
2021/10/02 05:45:33;;;;;;;3.10;1.60;;;;;;;12.79;87.04;100120.78;5069656;28;20296;-75
2021/10/02 05:47:59;;;;;;;3.17;1.30;;;;;;;12.77;86.06;100154.88;5071773;28;20236;-76
2021/10/02 05:50:26;;;;;;;1.40;1.30;;;;;;;12.73;86.61;100152.41;5071392;28;20203;-77
2021/10/02 05:52:52;;;;;;;1.50;1.40;;;;;;;12.70;86.49;100145.50;5071458;28;20203;-76
2021/10/02 05:55:20;;;;;;;3.47;1.27;;;;;;;12.65;86.15;100169.22;5071193;28;20256;-77
2021/10/02 05:57:46;;;;;;;3.13;1.20;;;;;;;12.71;86.09;100160.31;5071360;28;20249;-76
2021/10/02 06:00:13;;;;;;;1.70;1.60;;;;;;;12.73;85.52;100176.84;5071016;28;20610;-76
2021/10/02 06:02:39;;;;;;;2.07;1.33;;;;;;;12.73;86.54;100161.13;5069854;28;20638;-75
2021/10/02 06:05:06;;;;;;;2.07;1.20;;;;;;;12.73;85.72;100189.09;5071431;28;20234;-75
2021/10/02 06:07:33;;;;;;;1.97;1.30;;;;;;;12.75;85.97;100182.88;5066432;28;20221;-76
2021/10/02 06:09:59;;;;;;;1.30;1.20;;;;;;;12.76;86.71;100165.41;5070933;28;20280;-75
2021/10/02 06:12:27;;;;;;;2.40;1.20;;;;;;;12.77;87.52;100148.78;5071425;28;20576;-76
2021/10/02 06:14:53;;;;;;;1.47;1.33;;;;;;;12.78;88.11;100111.19;5071489;28;20636;-77
2021/10/02 06:17:19;;;;;;;2.13;1.30;;;;;;;12.74;87.38;100131.38;5071546;28;20772;-77
2021/10/02 06:19:46;;;;;;;1.70;1.30;;;;;;;12.80;86.84;100157.38;5069464;28;20199;-77
2021/10/02 06:22:12;;;;;;;1.90;1.33;;;;;;;12.80;88.02;100115.47;5070877;28;20575;-75
2021/10/02 06:24:41;;;;;;;1.40;1.30;;;;;;;12.83;89.63;100086.56;5073777;28;20222;-75
2021/10/02 06:27:09;;;;;;;1.70;1.60;;;;;;;12.89;89.50;100083.72;5075528;28;20226;-76
2021/10/02 06:29:37;;;;;;;1.47;1.30;;;;;;;12.93;89.05;100100.22;5074770;28;20667;-75
2021/10/02 06:32:04;;;;;;;1.87;1.23;;;;;;;12.96;89.02;100113.19;5075355;28;20212;-76
2021/10/02 06:34:32;;;;;;;2.10;1.90;;;;;;;12.94;88.73;100119.41;5075331;28;20212;-76
2021/10/02 06:36:58;;;;;;;1.50;1.40;;;;;;;12.99;88.96;100118.34;5067274;28;20230;-75
2021/10/02 06:39:25;;;;;;;1.93;1.23;;;;;;;13.00;87.98;100151.50;5074749;28;21509;-74
2021/10/02 06:41:51;;;;;;;2.27;1.80;;;;;;;13.06;88.22;100155.66;5075140;28;20236;-75
2021/10/02 06:44:17;;;;;;;1.90;1.43;;;;;;;13.11;88.50;100148.50;5075027;28;20318;-76
2021/10/02 06:46:45;;;;;;;3.80;1.50;;;;;;;13.09;88.94;100127.59;5075116;28;20231;-76
2021/10/02 06:49:11;;;;;;;1.97;1.33;;;;;;;13.10;88.33;100159.88;5067306;28;20205;-77
2021/10/02 06:51:38;;;;;;;2.20;1.40;;;;;;;12.95;87.64;100165.66;5064110;28;20246;-78
2021/10/02 06:54:04;;;;;;;1.53;1.43;;;;;;;13.01;87.33;100210.84;5063168;28;20200;-77
2021/10/02 06:56:30;;;;;;;1.60;1.37;;;;;;;13.06;87.51;100201.09;5064505;28;20221;-75
2021/10/02 06:58:58;;;;;;;2.37;2.00;;;;;;;13.15;88.28;100170.22;5064538;28;20572;-77
2021/10/02 07:01:25;;;;;;;2.10;1.30;;;;;;;13.20;89.01;100137.72;5063638;28;20214;-79
2021/10/02 07:03:53;;;;;;;1.63;1.20;;;;;;;13.25;88.97;100129.69;5065440;28;20198;-79
2021/10/02 07:06:19;;;;;;;1.40;1.30;;;;;;;13.30;89.46;100115.53;5063829;28;20219;-79
2021/10/02 07:08:47;;;;;;;2.70;1.47;;;;;;;13.25;87.84;100161.13;5067689;28;20582;-80
2021/10/02 07:11:14;;;;;;;2.00;1.60;;;;;;;13.32;87.93;100170.56;5069096;28;20204;-79
2021/10/02 07:13:40;;;;;;;2.70;1.87;;;;;;;13.36;87.73;100182.63;5078078;28;20208;-79
2021/10/02 07:16:06;;;;;;;4.13;1.43;;;;;;;13.38;86.14;100214.91;5074717;28;20230;-78
2021/10/02 07:18:33;;;;;;;3.10;1.80;;;;;;;13.47;86.10;100218.97;5073738;28;20238;-78
2021/10/02 07:21:00;;;;;;;1.40;1.30;;;;;;;13.51;86.36;100207.47;5077705;28;20553;-78
2021/10/02 07:23:29;;;;;;;1.80;1.30;;;;;;;13.55;84.01;100274.63;5074588;28;20311;-79
2021/10/02 07:25:56;;;;;;;2.10;1.47;;;;;;;13.63;84.49;100282.22;5072516;28;20651;-77
2021/10/02 07:28:22;;;;;;;2.33;1.63;;;;;;;13.65;84.36;100283.88;5073790;28;20328;-77
2021/10/02 07:30:49;;;;;;;2.90;1.57;;;;;;;13.75;83.73;100294.91;5074052;28;20210;-77
2021/10/02 07:33:15;;;;;;;3.80;1.67;;;;;;;13.72;84.79;100283.69;5073914;28;20204;-77
2021/10/02 07:35:42;;;;;;;2.50;1.50;;;;;;;13.78;83.50;100293.97;5073445;28;20208;-77
2021/10/02 07:38:10;;;;;;;2.93;1.90;;;;;;;13.88;83.64;100284.88;5058184;28;20220;-75
2021/10/02 07:40:37;;;;;;;4.10;2.40;;;;;;;13.92;84.93;100283.84;5069829;28;20206;-76
2021/10/02 07:43:05;;;;;;;1.93;1.40;;;;;;;14.02;83.16;100318.50;5060729;28;20234;-76
2021/10/02 07:45:32;;;;;;;4.83;1.67;;;;;;;14.12;83.85;100266.53;5058372;28;20332;-76
2021/10/02 07:47:59;;;;;;;1.60;1.37;;;;;;;14.30;84.37;100257.97;5058277;28;20212;-79
2021/10/02 07:50:26;;;;;;;4.53;1.77;;;;;;;14.38;84.35;100276.06;5056943;28;20559;-80
2021/10/02 07:52:55;;;;;;;2.17;1.63;;;;;;;14.44;81.94;100337.09;5055908;28;20837;-77
2021/10/02 07:55:26;;;;;;;2.23;1.80;;;;;;;14.50;82.84;100330.78;5057420;28;20264;-77
2021/10/02 07:57:52;;;;;;;1.50;1.30;;;;;;;14.52;80.84;100370.13;5057337;28;20244;-77
2021/10/02 08:00:20;;;;;;;1.70;1.60;;;;;;;14.56;81.06;100397.97;5055063;28;20213;-77
2021/10/02 08:02:52;;;;;;;1.57;1.37;;;;;;;14.56;81.52;100372.59;5057832;28;20292;-76
2021/10/02 08:05:19;;;;;;;1.17;1.10;;;;;;;14.39;80.62;100406.44;5057790;28;20301;-75
2021/10/02 08:07:48;;;;;;;1.80;1.20;;;;;;;14.38;80.96;100395.09;5053634;28;20229;-79
2021/10/02 08:10:17;;;;;;;2.20;1.70;;;;;;;14.44;81.65;100365.13;5058816;28;20205;-77
2021/10/02 08:12:45;;;;;;;3.70;1.63;;;;;;;14.49;81.52;100371.94;5055879;28;20248;-77
2021/10/02 08:15:12;;;;;;;1.83;1.20;;;;;;;14.46;81.49;100361.53;5054591;28;20254;-76
2021/10/02 08:17:41;;;;;;;1.40;1.20;;;;;;;14.49;81.88;100366.69;5057597;28;20258;-76
2021/10/02 08:20:11;;;;;;;2.30;1.53;;;;;;;14.56;81.01;100388.38;5056067;28;20205;-76
2021/10/02 08:22:39;;;;;;;2.30;1.33;;;;;;;14.71;81.43;100373.81;5058651;28;20213;-76
2021/10/02 08:25:07;;;;;;;4.77;1.43;;;;;;;14.75;79.67;100424.50;5057515;28;20243;-76
2021/10/02 08:27:34;;;;;;;1.40;1.30;;;;;;;14.94;81.74;100356.31;5053501;28;21117;-75
2021/10/02 08:30:03;;;;;;;1.37;1.20;;;;;;;14.73;77.72;100479.72;5058113;28;20215;-77
2021/10/02 08:32:30;;;;;;;1.33;1.23;;;;;;;14.73;79.05;100468.34;5055844;28;20265;-78
2021/10/02 08:34:57;;;;;;;2.60;1.33;;;;;;;14.84;79.20;100446.00;5059239;28;20253;-77
2021/10/02 08:37:23;;;;;;;1.50;1.40;;;;;;;14.77;77.65;100504.13;5057574;28;20260;-76
2021/10/02 08:39:49;;;;;;;4.63;1.67;;;;;;;14.77;78.38;100491.84;5053911;28;20209;-77
2021/10/02 08:42:17;;;;;;;2.07;1.40;;;;;;;14.85;79.12;100454.78;5058524;28;20265;-77
2021/10/02 08:44:43;;;;;;;2.53;1.77;;;;;;;14.95;79.31;100442.16;5054797;28;20794;-76
2021/10/02 08:47:11;;;;;;;1.50;1.33;;;;;;;15.03;78.56;100461.97;5056071;28;20708;-76
2021/10/02 08:49:44;;;;;;;2.53;1.60;;;;;;;15.05;80.94;100394.41;5054813;28;20337;-77
2021/10/02 08:52:12;;;;;;;5.93;2.20;;;;;;;15.12;79.59;100423.94;5053382;28;20204;-77
2021/10/02 08:54:41;;;;;;;1.37;1.23;;;;;;;15.21;80.25;100384.16;5053097;28;20232;-77
2021/10/02 08:57:09;;;;;;;1.50;1.30;;;;;;;15.27;78.98;100440.94;5056545;28;20790;-77
2021/10/02 08:59:37;;;;;;;1.97;1.50;;;;;;;15.38;79.37;100440.50;5056882;28;20205;-78
2021/10/02 09:02:04;;;;;;;1.40;1.30;;;;;;;15.41;77.87;100478.06;5054852;28;20919;-77
2021/10/02 09:04:31;;;;;;;1.20;1.10;;;;;;;15.46;78.33;100460.34;5056597;28;20209;-77
2021/10/02 09:07:00;;;;;;;2.20;1.27;;;;;;;15.27;77.02;100517.19;5053934;28;20225;-78
2021/10/02 09:09:27;;;;;;;1.63;1.37;;;;;;;15.34;76.64;100529.22;5055591;28;20216;-77
2021/10/02 09:11:54;;;;;;;2.10;1.47;;;;;;;15.33;76.30;100534.53;5054327;28;20216;-77
2021/10/02 09:14:20;;;;;;;1.70;1.30;;;;;;;15.27;76.92;100504.91;5057831;28;20679;-78
2021/10/02 09:16:46;;;;;;;1.70;1.60;;;;;;;15.28;75.53;100535.56;5048860;28;20226;-78
2021/10/02 09:19:13;;;;;;;1.10;1.00;;;;;;;15.46;76.27;100534.00;5056025;28;20209;-77
2021/10/02 09:21:45;;;;;;;3.37;1.70;;;;;;;15.54;77.67;100472.34;5047685;28;20209;-78
2021/10/02 09:24:22;;;;;;;1.07;0.97;;;;;;;15.57;76.96;100493.28;5054591;28;20572;-77
2021/10/02 09:26:49;;;;;;;2.00;1.10;;;;;;;15.42;75.61;100524.53;5048545;28;20590;-77
2021/10/02 09:29:16;;;;;;;2.67;1.40;;;;;;;15.40;76.30;100525.47;5051383;28;20236;-77
2021/10/02 09:31:42;;;;;;;1.17;0.90;;;;;;;15.45;76.90;100484.94;5055382;28;20262;-77
2021/10/02 09:34:21;;;;;;;2.63;1.93;;;;;;;15.45;75.76;100511.25;5047252;28;20212;-75
2021/10/02 09:36:49;;;;;;;1.07;1.07;;;;;;;15.50;76.64;100484.78;5053780;28;20261;-76
2021/10/02 09:39:16;;;;;;;2.17;1.50;;;;;;;15.52;77.61;100463.66;5046898;28;20629;-77
2021/10/02 09:41:48;;;;;;;1.83;1.20;;;;;;;15.49;75.70;100502.31;5050034;28;20301;-76
2021/10/02 09:44:24;;;;;;;1.53;1.30;;;;;;;15.40;75.26;100539.50;5051916;28;20296;-77
2021/10/02 09:46:51;;;;;;;1.90;1.10;;;;;;;15.52;75.93;100506.63;5054221;28;20318;-74
2021/10/02 09:49:18;;;;;;;1.30;1.00;;;;;;;15.43;75.83;100507.81;5051857;28;20213;-77
2021/10/02 09:51:46;;;;;;;0.90;0.90;;;;;;;15.51;74.93;100546.13;5050085;28;20214;-76
2021/10/02 09:54:38;;;;;;;1.20;1.00;;;;;;;15.80;75.62;100514.31;5049345;28;20205;-74
2021/10/02 09:57:10;;;;;;;0.80;0.80;;;;;;;15.95;74.54;100560.22;5052211;28;20321;-76
2021/10/02 09:59:36;;;;;;;0.70;0.70;;;;;;;15.96;73.65;100567.22;5051796;28;20216;-77
2021/10/02 10:02:13;;;;;;;1.20;1.03;;;;;;;16.03;74.26;100558.16;5051254;28;21138;-76
2021/10/02 10:04:39;;;;;;;1.37;1.00;;;;;;;16.11;74.21;100555.22;5052894;28;20212;-77
2021/10/02 10:07:09;;;;;;;1.10;0.80;;;;;;;16.11;72.71;100589.44;5052289;28;20289;-74
2021/10/02 10:09:40;;;;;;;1.10;0.93;;;;;;;15.94;72.04;100636.66;5050577;28;20245;-75
2021/10/02 10:12:07;;;;;;;0.93;0.90;;;;;;;15.94;72.52;100624.34;5050465;28;20217;-76
2021/10/02 10:14:36;;;;;;;1.13;0.90;;;;;;;16.11;74.37;100563.13;5049648;28;20211;-78
2021/10/02 10:17:08;;;;;;;1.20;1.10;;;;;;;15.87;72.68;100613.19;5049871;28;21005;-76
2021/10/02 10:19:35;;;;;;;2.03;1.00;;;;;;;15.96;73.46;100576.91;5046791;28;20209;-78
2021/10/02 10:22:06;;;;;;;1.07;1.03;;;;;;;15.91;73.96;100563.06;4348213;28;10000586;-77
2021/10/02 10:24:33;;;;;;;1.07;0.90;;;;;;;15.94;73.63;100553.28;5047597;28;20223;-77
2021/10/02 10:27:00;;;;;;;0.93;0.83;;;;;;;15.96;74.86;100551.44;5044392;28;20252;-76
2021/10/02 10:29:36;;;;;;;1.67;0.80;;;;;;;16.04;74.94;100517.75;5045163;28;20233;-77
2021/10/02 10:32:09;;;;;;;0.90;0.90;;;;;;;16.18;75.47;100484.72;5045253;28;20230;-76
2021/10/02 10:34:39;;;;;;;1.87;1.00;;;;;;;16.28;74.76;100522.94;5043455;28;20269;-77
2021/10/02 10:37:06;;;;;;;1.20;1.00;;;;;;;16.37;73.42;100558.56;5043175;28;20231;-77
2021/10/02 10:39:33;;;;;;;1.57;1.20;;;;;;;16.60;73.59;100557.63;5047280;28;20286;-76
2021/10/02 10:42:02;;;;;;;1.20;1.10;;;;;;;16.71;72.28;100597.56;5048050;28;20233;-77
2021/10/02 10:44:28;;;;;;;1.40;1.30;;;;;;;16.75;72.07;100619.38;5048358;28;20668;-76
2021/10/02 10:46:55;;;;;;;1.13;0.83;;;;;;;16.90;71.94;100610.00;5043863;28;20237;-77
2021/10/02 10:49:23;;;;;;;1.70;1.00;;;;;;;16.99;70.64;100663.22;5049740;28;20269;-77
2021/10/02 10:51:50;;;;;;;1.10;1.00;;;;;;;16.94;68.66;100723.19;5054015;28;20675;-77
2021/10/02 10:54:17;;;;;;;1.63;1.03;;;;;;;16.81;68.56;100743.94;5048643;28;20207;-75
2021/10/02 10:56:47;;;;;;;1.80;0.90;;;;;;;16.96;68.59;100723.13;5050805;28;20259;-75
2021/10/02 10:59:18;;;;;;;1.20;1.00;;;;;;;16.72;68.08;100752.16;5049027;28;20316;-75
2021/10/02 11:01:46;;;;;;;1.53;1.03;;;;;;;16.81;69.32;100717.56;5041867;28;20221;-74
2021/10/02 11:04:33;;;;;;;1.10;0.80;;;;;;;17.05;69.26;100697.25;5051294;28;20697;-76
2021/10/02 11:07:00;;;;;;;2.50;2.30;;;;;;;17.14;68.73;100710.97;5043216;28;20261;-77
2021/10/02 11:09:35;;;;;;;1.80;1.27;;;;;;;17.26;69.34;100691.97;5044999;28;21271;-77
2021/10/02 11:12:02;;;;;;;1.43;1.10;;;;;;;16.77;68.95;100723.84;5052319;28;20209;-74
2021/10/02 11:15:02;;;;;;;0.80;0.80;;;;;;;17.00;69.91;100664.91;5053220;28;21250;-77
2021/10/02 11:17:45;;;;;;;0.90;0.90;;;;;;;16.92;68.03;100706.56;5054540;28;20718;-78
2021/10/02 11:20:38;;;;;;;1.20;1.10;;;;;;;16.99;69.17;100694.88;5052458;28;20202;-76
2021/10/02 11:23:56;;;;;;;1.20;1.00;;;;;;;17.11;70.13;100638.09;5049520;28;20208;-75
2021/10/02 11:26:25;;;;;;;1.57;1.10;;;;;;;17.00;68.33;100679.88;5055222;28;20237;-77
2021/10/02 11:29:16;;;;;;;1.73;1.00;;;;;;;17.17;69.54;100644.91;5051049;28;20681;-75
2021/10/02 11:31:44;;;;;;;1.13;0.90;;;;;;;17.18;68.38;100684.38;5055328;28;20755;-77
2021/10/02 11:34:17;;;;;;;1.20;1.10;;;;;;;17.17;68.30;100680.03;5055536;28;21046;-73
2021/10/02 11:36:45;;;;;;;1.23;0.80;;;;;;;17.36;68.94;100671.31;5046552;28;20795;-76
2021/10/02 11:39:15;;;;;;;1.10;1.00;;;;;;;17.23;67.64;100686.84;5048558;28;20207;-77
2021/10/02 11:41:45;;;;;;;1.03;0.93;;;;;;;17.37;68.66;100654.59;5045814;28;20292;-75
2021/10/02 11:44:13;;;;;;;1.10;1.00;;;;;;;17.65;69.31;100618.09;5055392;28;20297;-76
2021/10/02 11:46:41;;;;;;;1.83;0.97;;;;;;;18.59;68.54;100628.69;5050291;28;20279;-77
2021/10/02 11:49:20;;;;;;;1.20;1.03;;;;;;;19.84;63.40;100806.84;5053174;28;20240;-75
2021/10/02 11:52:11;;;;;;;1.40;1.30;;;;;;;20.66;60.52;100950.22;5047710;28;20238;-76
2021/10/02 11:54:38;;;;;;;1.40;0.93;;;;;;;21.22;57.51;101066.59;5057566;28;20247;-76
2021/10/02 11:57:09;;;;;;;1.50;1.27;;;;;;;21.11;56.81;101126.53;5055460;28;20782;-75
2021/10/02 11:59:41;;;;;;;1.20;1.10;;;;;;;20.95;56.47;101098.13;5048014;28;20202;-76
2021/10/02 12:02:08;;;;;;;1.27;1.17;;;;;;;20.39;56.83;101077.97;5050874;28;20220;-76
2021/10/02 12:04:38;;;;;;;1.17;1.10;;;;;;;19.93;58.45;101032.50;5053008;28;20923;-77
2021/10/02 12:07:05;;;;;;;1.50;1.20;;;;;;;19.77;59.89;100944.97;5051707;28;20232;-76
2021/10/02 12:09:32;;;;;;;1.20;1.10;;;;;;;19.99;60.00;100911.16;5050232;28;20247;-75
2021/10/02 12:11:59;;;;;;;1.27;1.10;;;;;;;20.43;58.94;100962.84;5051656;28;20201;-75
2021/10/02 12:14:28;;;;;;;3.30;3.00;;;;;;;20.99;56.34;101037.75;5053298;28;20241;-77
2021/10/02 12:16:57;;;;;;;2.30;2.20;;;;;;;21.31;55.44;101106.91;5049404;28;20233;-77
2021/10/02 12:19:24;;;;;;;1.73;1.30;;;;;;;20.64;54.88;101141.28;5053740;28;20243;-76
2021/10/02 12:21:55;;;;;;;3.10;2.80;;;;;;;20.16;57.74;101015.50;5052263;28;20219;-75
2021/10/02 12:24:24;;;;;;;2.20;2.00;;;;;;;19.91;59.77;100923.09;5047519;28;20198;-76